createdAt,value
2024-01-20T00:00:00.798Z,-6.21
2024-01-20T00:01:00.818Z,-6.16
2024-01-20T00:02:00.818Z,-6.16
2024-01-20T00:03:00.760Z,-6.16
2024-01-20T00:04:00.789Z,-6.13
2024-01-20T00:05:00.748Z,-6.11
2024-01-20T00:06:00.725Z,-6.10
2024-01-20T00:07:00.766Z,-6.05
2024-01-20T00:08:00.718Z,-6.03
2024-01-20T00:09:00.683Z,-5.93
2024-01-20T00:10:00.687Z,-5.84
2024-01-20T00:11:00.729Z,-5.75
2024-01-20T00:12:00.649Z,-5.66
2024-01-20T00:13:00.663Z,-5.57
2024-01-20T00:14:01.504Z,-5.54
2024-01-20T00:15:01.390Z,-5.50
2024-01-20T00:16:00.625Z,-5.46
2024-01-20T00:17:08.919Z,-5.44
2024-01-20T00:18:01.667Z,-5.39
2024-01-20T00:19:00.676Z,-5.37
2024-01-20T00:20:00.709Z,-5.39
2024-01-20T00:21:00.557Z,-5.41
2024-01-20T00:22:00.540Z,-5.44
2024-01-20T00:23:00.560Z,-5.46
2024-01-20T00:24:00.508Z,-5.44
2024-01-20T00:25:00.511Z,-5.46
2024-01-20T00:26:00.514Z,-5.51
2024-01-20T00:27:00.494Z,-5.53
2024-01-20T00:28:00.495Z,-5.55
2024-01-20T00:29:00.487Z,-5.61
2024-01-20T00:30:00.692Z,-5.64
2024-01-20T00:31:00.447Z,-5.68
2024-01-20T00:32:00.469Z,-5.72
2024-01-20T00:33:00.561Z,-5.75
2024-01-20T00:34:01.054Z,-5.82
2024-01-20T00:35:07.044Z,-5.87
2024-01-20T00:36:02.033Z,-5.92
2024-01-20T00:37:00.377Z,-5.93
2024-01-20T00:38:00.425Z,-5.92
2024-01-20T00:39:00.383Z,-5.87
2024-01-20T00:40:00.350Z,-5.84
2024-01-20T00:41:00.372Z,-5.82
2024-01-20T00:42:00.304Z,-5.79
2024-01-20T00:43:00.381Z,-5.75
2024-01-20T00:44:00.388Z,-5.75
2024-01-20T00:45:00.359Z,-5.79
2024-01-20T00:46:00.288Z,-5.83
2024-01-20T00:47:00.340Z,-5.87
2024-01-20T00:48:00.325Z,-5.93
2024-01-20T00:49:00.378Z,-5.97
2024-01-20T00:50:00.357Z,-5.92
2024-01-20T00:51:00.246Z,-5.89
2024-01-20T00:52:00.245Z,-5.87
2024-01-20T00:53:00.259Z,-5.87
2024-01-20T00:54:00.233Z,-5.86
2024-01-20T00:55:00.971Z,-5.89
2024-01-20T00:56:01.084Z,-5.92
2024-01-20T00:57:00.174Z,-5.92
2024-01-20T00:58:00.158Z,-5.93
2024-01-20T00:59:00.166Z,-5.94
2024-01-20T01:00:00.187Z,-5.94
2024-01-20T01:01:00.175Z,-5.94
2024-01-20T01:02:00.280Z,-5.87
2024-01-20T01:03:00.171Z,-5.83
2024-01-20T01:04:00.145Z,-5.75
2024-01-20T01:05:00.113Z,-5.74
2024-01-20T01:06:00.078Z,-5.66
2024-01-20T01:07:00.873Z,-5.61
2024-01-20T01:08:00.066Z,-5.59
2024-01-20T01:09:00.034Z,-5.55
2024-01-20T01:10:00.044Z,-5.54
2024-01-20T01:11:00.026Z,-5.54
2024-01-20T01:11:59.992Z,-5.51
2024-01-20T01:12:59.983Z,-5.54
2024-01-20T01:14:00.178Z,-5.55
2024-01-20T01:15:00.006Z,-5.54
2024-01-20T01:16:00.752Z,-5.57
2024-01-20T01:17:00.036Z,-5.57
2024-01-20T01:18:00.070Z,-5.54
2024-01-20T01:18:59.948Z,-5.57
2024-01-20T01:20:00.006Z,-5.57
2024-01-20T01:20:59.919Z,-5.59
2024-01-20T01:21:59.948Z,-5.57
2024-01-20T01:23:00.026Z,-5.55
2024-01-20T01:23:59.891Z,-5.57
2024-01-20T01:24:59.856Z,-5.54
2024-01-20T01:25:59.942Z,-5.54
2024-01-20T01:26:59.933Z,-5.51
2024-01-20T01:27:59.859Z,-5.51
2024-01-20T01:28:59.893Z,-5.51
2024-01-20T01:29:59.954Z,-5.48
2024-01-20T01:30:59.882Z,-5.48
2024-01-20T01:31:59.836Z,-5.47
2024-01-20T01:32:59.809Z,-5.47
2024-01-20T01:33:59.794Z,-5.47
2024-01-20T01:34:59.807Z,-5.47
2024-01-20T01:36:00.726Z,-5.47
2024-01-20T01:36:59.734Z,-5.47
2024-01-20T01:38:00.040Z,-5.46
2024-01-20T01:38:59.750Z,-5.39
2024-01-20T01:39:59.924Z,-5.41
2024-01-20T01:40:59.907Z,-5.39
2024-01-20T01:41:59.657Z,-5.37
2024-01-20T01:42:59.664Z,-5.37
2024-01-20T01:44:00.630Z,-5.36
2024-01-20T01:44:59.666Z,-5.36
2024-01-20T01:45:59.630Z,-5.35
2024-01-20T01:46:59.632Z,-5.36
2024-01-20T01:47:59.718Z,-5.35
2024-01-20T01:48:59.620Z,-5.33
2024-01-20T01:49:59.625Z,-5.33
2024-01-20T01:50:59.569Z,-5.33
2024-01-20T01:51:59.588Z,-5.32
2024-01-20T01:52:59.537Z,-5.32
2024-01-20T01:53:59.568Z,-5.33
2024-01-20T01:54:59.527Z,-5.36
2024-01-20T01:55:59.530Z,-5.36
2024-01-20T01:57:00.311Z,-5.36
2024-01-20T01:57:59.501Z,-5.33
2024-01-20T01:58:59.586Z,-5.33
2024-01-20T01:59:59.575Z,-5.35
2024-01-20T02:00:59.502Z,-5.36
2024-01-20T02:01:59.474Z,-5.36
2024-01-20T02:02:59.515Z,-5.41
2024-01-20T02:03:59.463Z,-5.43
2024-01-20T02:04:59.415Z,-5.43
2024-01-20T02:05:59.454Z,-5.46
2024-01-20T02:06:59.413Z,-5.51
2024-01-20T02:07:59.416Z,-5.55
2024-01-20T02:08:59.427Z,-5.55
2024-01-20T02:09:59.347Z,-5.59
2024-01-20T02:10:59.339Z,-5.62
2024-01-20T02:11:59.364Z,-5.64
2024-01-20T02:12:59.313Z,-5.65
2024-01-20T02:13:59.319Z,-5.71
2024-01-20T02:14:59.328Z,-5.75
2024-01-20T02:15:59.317Z,-5.79
2024-01-20T02:16:59.307Z,-5.83
2024-01-20T02:18:00.228Z,-5.87
2024-01-20T02:18:59.292Z,-5.90
2024-01-20T02:19:59.249Z,-5.94
2024-01-20T02:20:59.340Z,-5.98
2024-01-20T02:21:59.222Z,-6.03
2024-01-20T02:22:59.206Z,-6.08
2024-01-20T02:23:59.281Z,-6.10
2024-01-20T02:24:59.174Z,-6.11
2024-01-20T02:25:59.198Z,-6.16
2024-01-20T02:26:59.247Z,-6.19
2024-01-20T02:27:59.163Z,-6.21
2024-01-20T02:28:59.159Z,-6.25
2024-01-20T02:30:00.045Z,-6.25
2024-01-20T02:30:59.160Z,-6.26
2024-01-20T02:31:59.132Z,-6.28
2024-01-20T02:32:59.234Z,-6.28
2024-01-20T02:33:59.272Z,-6.29
2024-01-20T02:34:59.103Z,-6.29
2024-01-20T02:35:59.083Z,-6.31
2024-01-20T02:36:59.866Z,-6.29
2024-01-20T02:37:59.773Z,-6.31
2024-01-20T02:38:59.105Z,-6.31
2024-01-20T02:39:59.031Z,-6.32
2024-01-20T02:40:59.017Z,-6.31
2024-01-20T02:41:59.011Z,-6.32
2024-01-20T02:42:59.000Z,-6.29
2024-01-20T02:43:58.990Z,-6.29
2024-01-20T02:44:59.000Z,-6.32
2024-01-20T02:45:59.001Z,-6.32
2024-01-20T02:46:58.961Z,-6.36
2024-01-20T02:47:59.236Z,-6.40
2024-01-20T02:48:59.033Z,-6.47
2024-01-20T02:49:58.995Z,-6.49
2024-01-20T02:50:59.091Z,-6.54
2024-01-20T02:51:58.889Z,-6.59
2024-01-20T02:52:58.909Z,-6.59
2024-01-20T02:53:58.973Z,-6.66
2024-01-20T02:54:58.994Z,-6.71
2024-01-20T02:55:58.838Z,-6.71
2024-01-20T02:56:58.898Z,-6.76
2024-01-20T02:57:58.839Z,-6.80
2024-01-20T02:58:58.825Z,-6.83
2024-01-20T02:59:58.855Z,-6.86
2024-01-20T03:00:58.819Z,-6.91
2024-01-20T03:01:58.843Z,-6.91
2024-01-20T03:02:58.813Z,-6.97
2024-01-20T03:03:58.823Z,-7.00
2024-01-20T03:04:58.775Z,-7.01
2024-01-20T03:05:58.776Z,-7.01
2024-01-20T03:06:58.746Z,-7.01
2024-01-20T03:07:58.736Z,-6.97
2024-01-20T03:08:58.757Z,-6.91
2024-01-20T03:09:58.693Z,-6.86
2024-01-20T03:10:58.687Z,-6.84
2024-01-20T03:11:59.626Z,-6.84
2024-01-20T03:12:58.696Z,-6.87
2024-01-20T03:13:58.657Z,-6.92
2024-01-20T03:14:58.697Z,-6.97
2024-01-20T03:15:58.663Z,-7.01
2024-01-20T03:16:58.659Z,-7.07
2024-01-20T03:17:59.619Z,-7.12
2024-01-20T03:18:59.450Z,-7.16
2024-01-20T03:19:58.687Z,-7.19
2024-01-20T03:20:58.630Z,-7.23
2024-01-20T03:21:58.590Z,-7.26
2024-01-20T03:22:58.573Z,-7.29
2024-01-20T03:23:58.593Z,-7.29
2024-01-20T03:24:58.576Z,-7.29
2024-01-20T03:25:58.538Z,-7.29
2024-01-20T03:26:59.803Z,-7.31
2024-01-20T03:27:58.520Z,-7.30
2024-01-20T03:28:58.494Z,-7.31
2024-01-20T03:29:58.602Z,-7.29
2024-01-20T03:30:58.474Z,-7.26
2024-01-20T03:31:58.493Z,-7.30
2024-01-20T03:32:58.651Z,-7.30
2024-01-20T03:33:58.575Z,-7.29
2024-01-20T03:34:58.434Z,-7.30
2024-01-20T03:35:58.431Z,-7.33
2024-01-20T03:36:58.438Z,-7.33
2024-01-20T03:37:58.432Z,-7.31
2024-01-20T03:38:58.483Z,-7.31
2024-01-20T03:39:58.385Z,-7.31
2024-01-20T03:40:58.373Z,-7.31
2024-01-20T03:41:58.378Z,-7.31
2024-01-20T03:42:58.349Z,-7.30
2024-01-20T03:43:58.681Z,-7.29
2024-01-20T03:44:58.356Z,-7.26
2024-01-20T03:45:58.304Z,-7.30
2024-01-20T03:46:58.304Z,-7.30
2024-01-20T03:47:58.344Z,-7.30
2024-01-20T03:48:58.394Z,-7.30
2024-01-20T03:49:58.355Z,-7.31
2024-01-20T03:50:58.291Z,-7.31
2024-01-20T03:51:58.253Z,-7.33
2024-01-20T03:52:58.275Z,-7.31
2024-01-20T03:53:58.255Z,-7.31
2024-01-20T03:54:58.225Z,-7.34
2024-01-20T03:55:58.230Z,-7.36
2024-01-20T03:56:58.317Z,-7.37
2024-01-20T03:57:58.179Z,-7.39
2024-01-20T03:58:58.193Z,-7.39
2024-01-20T03:59:59.129Z,-7.41
2024-01-20T04:00:58.204Z,-7.43
2024-01-20T04:01:58.153Z,-7.44
2024-01-20T04:02:58.176Z,-7.50
2024-01-20T04:03:58.358Z,-7.52
2024-01-20T04:04:58.135Z,-7.54
2024-01-20T04:05:58.138Z,-7.58
2024-01-20T04:06:58.106Z,-7.62
2024-01-20T04:07:58.102Z,-7.66
2024-01-20T04:08:58.079Z,-7.66
2024-01-20T04:09:58.055Z,-7.64
2024-01-20T04:10:58.069Z,-7.64
2024-01-20T04:11:58.064Z,-7.64
2024-01-20T04:12:58.050Z,-7.66
2024-01-20T04:13:58.033Z,-7.69
2024-01-20T04:14:58.063Z,-7.71
2024-01-20T04:15:57.997Z,-7.71
2024-01-20T04:16:57.973Z,-7.69
2024-01-20T04:17:58.162Z,-7.69
2024-01-20T04:18:58.087Z,-7.68
2024-01-20T04:19:58.790Z,-7.68
2024-01-20T04:20:57.949Z,-7.69
2024-01-20T04:21:57.949Z,-7.69
2024-01-20T04:22:57.922Z,-7.69
2024-01-20T04:23:57.925Z,-7.69
2024-01-20T04:24:57.895Z,-7.71
2024-01-20T04:25:57.896Z,-7.71
2024-01-20T04:26:57.921Z,-7.71
2024-01-20T04:27:57.869Z,-7.71
2024-01-20T04:28:57.849Z,-7.73
2024-01-20T04:29:57.833Z,-7.72
2024-01-20T04:30:57.832Z,-7.72
2024-01-20T04:31:57.876Z,-7.73
2024-01-20T04:32:57.929Z,-7.72
2024-01-20T04:33:57.975Z,-7.71
2024-01-20T04:34:57.822Z,-7.71
2024-01-20T04:35:57.806Z,-7.71
2024-01-20T04:36:57.797Z,-7.73
2024-01-20T04:37:57.921Z,-7.73
2024-01-20T04:38:57.781Z,-7.71
2024-01-20T04:39:57.757Z,-7.71
2024-01-20T04:40:57.797Z,-7.71
2024-01-20T04:41:57.734Z,-7.75
2024-01-20T04:42:57.682Z,-7.75
2024-01-20T04:43:57.687Z,-7.72
2024-01-20T04:44:57.781Z,-7.72
2024-01-20T04:45:57.663Z,-7.72
2024-01-20T04:46:57.662Z,-7.72
2024-01-20T04:47:57.772Z,-7.72
2024-01-20T04:48:57.693Z,-7.72
2024-01-20T04:49:57.645Z,-7.72
2024-01-20T04:50:57.660Z,-7.73
2024-01-20T04:51:57.617Z,-7.72
2024-01-20T04:52:57.602Z,-7.75
2024-01-20T04:53:57.611Z,-7.75
2024-01-20T04:54:57.576Z,-7.78
2024-01-20T04:55:57.571Z,-7.80
2024-01-20T04:56:57.551Z,-7.80
2024-01-20T04:57:57.514Z,-7.83
2024-01-20T04:58:57.501Z,-7.87
2024-01-20T04:59:57.650Z,-7.90
2024-01-20T05:00:57.607Z,-7.91
2024-01-20T05:01:57.474Z,-7.96
2024-01-20T05:02:57.516Z,-7.99
2024-01-20T05:03:57.570Z,-8.02
2024-01-20T05:04:57.439Z,-8.08
2024-01-20T05:05:57.469Z,-8.15
2024-01-20T05:06:57.584Z,-8.16
2024-01-20T05:07:57.417Z,-8.21
2024-01-20T05:08:57.418Z,-8.21
2024-01-20T05:09:57.395Z,-8.19
2024-01-20T05:10:57.387Z,-8.19
2024-01-20T05:11:57.377Z,-8.23
2024-01-20T05:12:57.380Z,-8.24
2024-01-20T05:13:57.359Z,-8.24
2024-01-20T05:14:57.504Z,-8.26
2024-01-20T05:15:57.317Z,-8.29
2024-01-20T05:16:57.329Z,-8.30
2024-01-20T05:17:57.426Z,-8.30
2024-01-20T05:18:57.445Z,-8.31
2024-01-20T05:19:57.361Z,-8.34
2024-01-20T05:20:57.308Z,-8.37
2024-01-20T05:21:57.275Z,-8.39
2024-01-20T05:22:57.260Z,-8.40
2024-01-20T05:23:57.301Z,-8.42
2024-01-20T05:24:57.229Z,-8.48
2024-01-20T05:25:57.227Z,-8.50
2024-01-20T05:26:57.237Z,-8.47
2024-01-20T05:27:57.212Z,-8.50
2024-01-20T05:28:57.180Z,-8.55
2024-01-20T05:29:57.225Z,-8.60
2024-01-20T05:30:57.167Z,-8.60
2024-01-20T05:31:57.178Z,-8.58
2024-01-20T05:32:57.298Z,-8.58
2024-01-20T05:33:57.232Z,-8.60
2024-01-20T05:34:57.119Z,-8.62
2024-01-20T05:35:57.169Z,-8.62
2024-01-20T05:36:57.096Z,-8.58
2024-01-20T05:37:57.098Z,-8.60
2024-01-20T05:38:57.126Z,-8.58
2024-01-20T05:39:57.078Z,-8.58
2024-01-20T05:40:57.071Z,-8.57
2024-01-20T05:41:58.009Z,-8.58
2024-01-20T05:42:57.034Z,-8.58
2024-01-20T05:43:57.035Z,-8.60
2024-01-20T05:44:57.071Z,-8.60
2024-01-20T05:45:57.008Z,-8.58
2024-01-20T05:46:57.009Z,-8.58
2024-01-20T05:47:57.030Z,-8.62
2024-01-20T05:48:57.195Z,-8.62
2024-01-20T05:49:56.980Z,-8.65
2024-01-20T05:50:57.007Z,-8.60
2024-01-20T05:51:56.916Z,-8.62
2024-01-20T05:52:56.925Z,-8.58
2024-01-20T05:53:56.962Z,-8.62
2024-01-20T05:54:56.910Z,-8.60
2024-01-20T05:55:56.889Z,-8.60
2024-01-20T05:56:57.071Z,-8.60
2024-01-20T05:57:56.886Z,-8.58
2024-01-20T05:58:56.896Z,-8.57
2024-01-20T05:59:56.914Z,-8.54
2024-01-20T06:00:56.887Z,-8.51
2024-01-20T06:01:57.640Z,-8.48
2024-01-20T06:02:57.757Z,-8.45
2024-01-20T06:03:56.894Z,-8.42
2024-01-20T06:04:56.822Z,-8.42
2024-01-20T06:05:56.795Z,-8.40
2024-01-20T06:06:56.790Z,-8.37
2024-01-20T06:07:57.546Z,-8.36
2024-01-20T06:08:56.798Z,-8.33
2024-01-20T06:09:56.762Z,-8.31
2024-01-20T06:10:56.765Z,-8.33
2024-01-20T06:11:56.733Z,-8.31
2024-01-20T06:12:56.702Z,-8.31
2024-01-20T06:13:56.705Z,-8.31
2024-01-20T06:14:56.765Z,-8.31
2024-01-20T06:15:56.723Z,-8.27
2024-01-20T06:16:56.678Z,-8.27
2024-01-20T06:17:56.757Z,-8.24
2024-01-20T06:18:56.696Z,-8.23
2024-01-20T06:19:56.627Z,-8.18
2024-01-20T06:20:56.684Z,-8.16
2024-01-20T06:21:56.621Z,-8.15
2024-01-20T06:22:57.382Z,-8.13
2024-01-20T06:23:57.657Z,-8.11
2024-01-20T06:24:56.619Z,-8.12
2024-01-20T06:25:57.940Z,-8.11
2024-01-20T06:26:56.656Z,-8.09
2024-01-20T06:27:56.593Z,-8.09
2024-01-20T06:28:56.548Z,-8.08
2024-01-20T06:29:56.548Z,-8.08
2024-01-20T06:30:56.617Z,-8.06
2024-01-20T06:31:57.302Z,-8.06
2024-01-20T06:32:56.696Z,-8.05
2024-01-20T06:33:56.654Z,-8.01
2024-01-20T06:34:56.516Z,-7.99
2024-01-20T06:35:56.828Z,-7.97
2024-01-20T06:36:57.978Z,-7.91
2024-01-20T06:37:56.443Z,-7.86
2024-01-20T06:38:56.457Z,-7.79
2024-01-20T06:39:56.460Z,-7.75
2024-01-20T06:40:56.431Z,-7.73
2024-01-20T06:41:56.501Z,-7.75
2024-01-20T06:42:57.255Z,-7.72
2024-01-20T06:43:56.411Z,-7.72
2024-01-20T06:44:58.004Z,-7.69
2024-01-20T06:45:56.345Z,-7.71
2024-01-20T06:46:56.590Z,-7.69
2024-01-20T06:47:56.491Z,-7.68
2024-01-20T06:48:56.441Z,-7.68
2024-01-20T06:49:56.304Z,-7.68
2024-01-20T06:50:56.335Z,-7.64
2024-01-20T06:51:56.711Z,-7.68
2024-01-20T06:52:57.070Z,-7.68
2024-01-20T06:53:56.297Z,-7.69
2024-01-20T06:54:56.260Z,-7.69
2024-01-20T06:55:56.233Z,-7.71
2024-01-20T06:56:56.275Z,-7.75
2024-01-20T06:57:56.261Z,-7.78
2024-01-20T06:58:57.757Z,-7.82
2024-01-20T06:59:56.217Z,-7.86
2024-01-20T07:00:56.243Z,-7.87
2024-01-20T07:01:56.182Z,-7.89
2024-01-20T07:02:56.254Z,-7.89
2024-01-20T07:03:57.078Z,-7.89
2024-01-20T07:04:56.145Z,-7.86
2024-01-20T07:05:56.216Z,-7.86
2024-01-20T07:06:56.119Z,-7.82
2024-01-20T07:07:56.129Z,-7.82
2024-01-20T07:08:56.367Z,-7.78
2024-01-20T07:09:56.073Z,-7.78
2024-01-20T07:10:56.183Z,-7.76
2024-01-20T07:11:56.129Z,-7.73
2024-01-20T07:12:56.067Z,-7.72
2024-01-20T07:13:56.064Z,-7.71
2024-01-20T07:14:56.094Z,-7.71
2024-01-20T07:15:56.015Z,-7.73
2024-01-20T07:16:56.016Z,-7.72
2024-01-20T07:17:56.086Z,-7.72
2024-01-20T07:18:56.437Z,-7.72
2024-01-20T07:19:56.036Z,-7.76
2024-01-20T07:20:56.001Z,-7.76
2024-01-20T07:21:55.961Z,-7.76
2024-01-20T07:22:56.778Z,-7.75
2024-01-20T07:23:58.448Z,-7.82
2024-01-20T07:24:56.002Z,-7.89
2024-01-20T07:25:55.953Z,-7.93
2024-01-20T07:26:55.944Z,-7.94
2024-01-20T07:27:55.924Z,-7.93
2024-01-20T07:28:56.998Z,-7.89
2024-01-20T07:29:56.203Z,-7.90
2024-01-20T07:30:55.866Z,-7.87
2024-01-20T07:31:55.873Z,-7.83
2024-01-20T07:32:55.935Z,-7.80
2024-01-20T07:33:55.909Z,-7.80
2024-01-20T07:34:55.863Z,-7.78
2024-01-20T07:35:55.932Z,-7.78
2024-01-20T07:36:55.852Z,-7.79
2024-01-20T07:37:55.801Z,-7.80
2024-01-20T07:38:55.816Z,-7.79
2024-01-20T07:39:55.761Z,-7.78
2024-01-20T07:40:55.754Z,-7.78
2024-01-20T07:41:55.832Z,-7.76
2024-01-20T07:42:55.706Z,-7.75
2024-01-20T07:43:56.420Z,-7.76
2024-01-20T07:44:55.993Z,-7.75
2024-01-20T07:45:55.710Z,-7.79
2024-01-20T07:46:55.697Z,-7.75
2024-01-20T07:47:55.736Z,-7.73
2024-01-20T07:48:55.773Z,-7.72
2024-01-20T07:49:55.667Z,-7.72
2024-01-20T07:50:55.722Z,-7.69
2024-01-20T07:51:55.670Z,-7.66
2024-01-20T07:52:55.615Z,-7.66
2024-01-20T07:53:55.650Z,-7.60
2024-01-20T07:54:55.613Z,-7.60
2024-01-20T07:55:55.594Z,-7.58
2024-01-20T07:56:55.633Z,-7.57
2024-01-20T07:57:55.896Z,-7.58
2024-01-20T07:58:55.569Z,-7.57
2024-01-20T07:59:55.581Z,-7.54
2024-01-20T08:00:55.635Z,-7.51
2024-01-20T08:01:55.547Z,-7.48
2024-01-20T08:02:55.585Z,-7.44
2024-01-20T08:03:56.449Z,-7.40
2024-01-20T08:04:56.293Z,-7.40
2024-01-20T08:05:55.642Z,-7.37
2024-01-20T08:06:55.582Z,-7.36
2024-01-20T08:07:55.508Z,-7.37
2024-01-20T08:08:55.538Z,-7.39
2024-01-20T08:09:55.450Z,-7.37
2024-01-20T08:10:55.410Z,-7.44
2024-01-20T08:11:55.434Z,-7.50
2024-01-20T08:12:55.394Z,-7.52
2024-01-20T08:13:55.400Z,-7.62
2024-01-20T08:14:55.443Z,-7.71
2024-01-20T08:15:55.372Z,-7.68
2024-01-20T08:16:55.366Z,-7.66
2024-01-20T08:17:55.530Z,-7.58
2024-01-20T08:18:55.439Z,-7.54
2024-01-20T08:19:55.351Z,-7.50
2024-01-20T08:20:55.505Z,-7.50
2024-01-20T08:21:55.310Z,-7.52
2024-01-20T08:22:55.292Z,-7.52
2024-01-20T08:23:55.811Z,-7.51
2024-01-20T08:24:55.271Z,-7.46
2024-01-20T08:25:55.284Z,-7.40
2024-01-20T08:26:55.344Z,-7.44
2024-01-20T08:27:55.225Z,-7.48
2024-01-20T08:28:55.209Z,-7.48
2024-01-20T08:29:55.246Z,-7.46
2024-01-20T08:30:55.248Z,-7.46
2024-01-20T08:31:55.195Z,-7.46
2024-01-20T08:32:56.331Z,-7.44
2024-01-20T08:33:55.289Z,-7.43
2024-01-20T08:34:55.178Z,-7.50
2024-01-20T08:35:55.226Z,-7.46
2024-01-20T08:36:55.124Z,-7.43
2024-01-20T08:37:55.130Z,-7.37
2024-01-20T08:38:55.138Z,-7.29
2024-01-20T08:39:55.130Z,-7.21
2024-01-20T08:40:55.085Z,-7.30
2024-01-20T08:41:55.161Z,-7.29
2024-01-20T08:42:55.103Z,-7.19
2024-01-20T08:43:55.045Z,-7.23
2024-01-20T08:44:55.785Z,-7.39
2024-01-20T08:45:55.968Z,-7.36
2024-01-20T08:46:55.027Z,-7.37
2024-01-20T08:47:55.048Z,-7.34
2024-01-20T08:48:55.047Z,-7.22
2024-01-20T08:49:55.010Z,-7.12
2024-01-20T08:50:55.027Z,-7.00
2024-01-20T08:51:54.981Z,-6.83
2024-01-20T08:52:55.021Z,-6.68
2024-01-20T08:53:54.972Z,-6.54
2024-01-20T08:54:54.959Z,-6.43
2024-01-20T08:55:54.932Z,-6.32
2024-01-20T08:56:54.938Z,-6.19
2024-01-20T08:57:54.944Z,-6.11
2024-01-20T08:58:55.097Z,-6.04
2024-01-20T08:59:55.026Z,-6.03
2024-01-20T09:00:54.984Z,-6.04
2024-01-20T09:01:54.871Z,-6.07
2024-01-20T09:02:54.912Z,-6.10
2024-01-20T09:03:54.973Z,-6.10
2024-01-20T09:04:54.827Z,-6.10
2024-01-20T09:05:55.655Z,-6.11
2024-01-20T09:06:55.840Z,-6.31
2024-01-20T09:07:54.803Z,-6.39
2024-01-20T09:08:54.845Z,-6.31
2024-01-20T09:09:55.371Z,-6.34
2024-01-20T09:10:54.773Z,-6.29
2024-01-20T09:11:54.764Z,-6.22
2024-01-20T09:12:54.726Z,-6.08
2024-01-20T09:13:54.739Z,-6.00
2024-01-20T09:14:54.798Z,-5.92
2024-01-20T09:15:54.875Z,-5.86
2024-01-20T09:16:54.703Z,-5.75
2024-01-20T09:17:54.741Z,-5.62
2024-01-20T09:18:54.785Z,-5.54
2024-01-20T09:19:54.851Z,-5.43
2024-01-20T09:20:54.669Z,-5.33
2024-01-20T09:21:54.644Z,-5.26
2024-01-20T09:22:54.631Z,-5.18
2024-01-20T09:23:54.755Z,-5.08
2024-01-20T09:24:54.605Z,-5.00
2024-01-20T09:25:54.806Z,-4.96
2024-01-20T09:26:54.625Z,-4.89
2024-01-20T09:27:54.622Z,-4.85
2024-01-20T09:28:54.551Z,-4.83
2024-01-20T09:29:54.518Z,-4.78
2024-01-20T09:30:54.605Z,-4.75
2024-01-20T09:31:54.553Z,-4.69
2024-01-20T09:32:54.705Z,-4.68
2024-01-20T09:33:54.557Z,-4.60
2024-01-20T09:34:54.513Z,-4.57
2024-01-20T09:35:54.494Z,-4.53
2024-01-20T09:36:54.486Z,-4.49
2024-01-20T09:37:54.500Z,-4.43
2024-01-20T09:38:54.583Z,-4.38
2024-01-20T09:39:54.422Z,-4.35
2024-01-20T09:40:54.429Z,-4.35
2024-01-20T09:41:54.449Z,-4.35
2024-01-20T09:42:54.434Z,-4.30
2024-01-20T09:43:54.371Z,-4.22
2024-01-20T09:44:54.380Z,-4.14
2024-01-20T09:45:54.388Z,-4.06
2024-01-20T09:46:54.355Z,-4.01
2024-01-20T09:47:54.532Z,-3.96
2024-01-20T09:48:54.458Z,-3.88
2024-01-20T09:49:54.365Z,-3.82
2024-01-20T09:50:54.309Z,-3.78
2024-01-20T09:51:54.512Z,-3.67
2024-01-20T09:52:54.256Z,-3.63
2024-01-20T09:53:54.256Z,-3.56
2024-01-20T09:54:54.308Z,-3.48
2024-01-20T09:55:54.272Z,-3.41
2024-01-20T09:56:54.238Z,-3.35
2024-01-20T09:57:54.223Z,-3.28
2024-01-20T09:58:54.227Z,-3.25
2024-01-20T09:59:54.237Z,-3.21
2024-01-20T10:00:54.392Z,-3.15
2024-01-20T10:01:54.208Z,-3.09
2024-01-20T10:02:54.166Z,-3.00
2024-01-20T10:03:54.246Z,-2.94
2024-01-20T10:04:54.225Z,-2.86
2024-01-20T10:05:54.205Z,-2.84
2024-01-20T10:06:55.065Z,-2.82
2024-01-20T10:07:54.556Z,-2.77
2024-01-20T10:08:54.102Z,-2.70
2024-01-20T10:09:54.085Z,-2.61
2024-01-20T10:10:54.041Z,-2.52
2024-01-20T10:11:54.142Z,-2.42
2024-01-20T10:12:54.127Z,-2.40
2024-01-20T10:13:54.055Z,-2.34
2024-01-20T10:14:54.046Z,-2.29
2024-01-20T10:15:54.094Z,-2.21
2024-01-20T10:16:54.003Z,-2.13
2024-01-20T10:17:54.102Z,-2.08
2024-01-20T10:18:54.027Z,-1.97
2024-01-20T10:19:54.075Z,-1.91
2024-01-20T10:20:54.283Z,-1.84
2024-01-20T10:21:53.975Z,-1.80
2024-01-20T10:22:53.937Z,-1.72
2024-01-20T10:23:53.970Z,-1.69
2024-01-20T10:24:53.931Z,-1.61
2024-01-20T10:25:53.951Z,-1.55
2024-01-20T10:26:53.942Z,-1.48
2024-01-20T10:27:54.458Z,-1.40
2024-01-20T10:28:53.909Z,-1.34
2024-01-20T10:29:53.944Z,-1.28
2024-01-20T10:30:54.035Z,-1.27
2024-01-20T10:31:53.871Z,-1.19
2024-01-20T10:33:04.043Z,-1.15
2024-01-20T10:33:54.874Z,-1.13
2024-01-20T10:34:53.999Z,-1.09
2024-01-20T10:35:53.803Z,-1.09
2024-01-20T10:36:53.840Z,-1.07
2024-01-20T10:37:53.826Z,-0.99
2024-01-20T10:38:53.813Z,-0.91
2024-01-20T10:39:53.816Z,-0.85
2024-01-20T10:40:54.649Z,-0.78
2024-01-20T10:41:53.812Z,-0.75
2024-01-20T10:42:53.871Z,-0.65
2024-01-20T10:43:53.784Z,-0.60
2024-01-20T10:44:53.731Z,-0.55
2024-01-20T10:45:53.809Z,-0.49
2024-01-20T10:46:53.700Z,-0.43
2024-01-20T10:47:54.569Z,-0.37
2024-01-20T10:48:53.874Z,-0.36
2024-01-20T10:49:53.743Z,-0.33
2024-01-20T10:50:53.634Z,-0.29
2024-01-20T10:51:53.805Z,-0.25
2024-01-20T10:52:53.657Z,-0.22
2024-01-20T10:53:53.695Z,-0.18
2024-01-20T10:54:53.622Z,-0.11
2024-01-20T10:55:53.589Z,-0.04
2024-01-20T10:56:53.681Z,0.02
2024-01-20T10:57:53.568Z,0.10
2024-01-20T10:58:53.579Z,0.14
2024-01-20T10:59:53.570Z,0.21
2024-01-20T11:00:53.547Z,0.26
2024-01-20T11:01:53.529Z,0.29
2024-01-20T11:02:53.526Z,0.36
2024-01-20T11:03:54.317Z,0.42
2024-01-20T11:04:53.500Z,0.44
2024-01-20T11:05:53.617Z,0.50
2024-01-20T11:06:53.501Z,0.53
2024-01-20T11:07:53.523Z,0.57
2024-01-20T11:08:54.198Z,0.60
2024-01-20T11:09:54.425Z,0.65
2024-01-20T11:10:53.458Z,0.66
2024-01-20T11:11:53.422Z,0.68
2024-01-20T11:12:53.413Z,0.65
2024-01-20T11:13:53.408Z,0.69
2024-01-20T11:14:53.441Z,0.72
2024-01-20T11:15:53.403Z,0.72
2024-01-20T11:16:53.352Z,0.76
2024-01-20T11:17:54.395Z,0.80
2024-01-20T11:18:53.448Z,0.86
2024-01-20T11:19:53.429Z,0.94
2024-01-20T11:20:53.376Z,0.98
2024-01-20T11:21:53.343Z,1.04
2024-01-20T11:22:53.360Z,1.09
2024-01-20T11:23:53.285Z,1.09
2024-01-20T11:24:53.336Z,1.14
2024-01-20T11:25:53.285Z,1.18
2024-01-20T11:26:53.315Z,1.24
2024-01-20T11:27:53.420Z,1.32
2024-01-20T11:28:53.341Z,1.34
2024-01-20T11:29:53.254Z,1.36
2024-01-20T11:30:53.347Z,1.41
2024-01-20T11:31:53.217Z,1.45
2024-01-20T11:32:53.231Z,1.48
2024-01-20T11:33:53.327Z,1.52
2024-01-20T11:34:53.250Z,1.55
2024-01-20T11:35:53.484Z,1.59
2024-01-20T11:36:53.202Z,1.66
2024-01-20T11:37:53.162Z,1.70
2024-01-20T11:38:53.147Z,1.70
2024-01-20T11:39:53.148Z,1.70
2024-01-20T11:40:53.154Z,1.72
2024-01-20T11:41:53.105Z,1.68
2024-01-20T11:42:53.139Z,1.72
2024-01-20T11:43:53.096Z,1.76
2024-01-20T11:44:53.087Z,1.81
2024-01-20T11:45:53.093Z,1.87
2024-01-20T11:46:53.027Z,1.98
2024-01-20T11:47:53.885Z,2.02
2024-01-20T11:48:53.835Z,2.09
2024-01-20T11:49:53.129Z,2.16
2024-01-20T11:50:53.005Z,2.20
2024-01-20T11:51:52.994Z,2.23
2024-01-20T11:52:52.947Z,2.25
2024-01-20T11:53:53.122Z,2.28
2024-01-20T11:54:52.952Z,2.34
2024-01-20T11:55:53.399Z,2.38
2024-01-20T11:56:52.917Z,2.36
2024-01-20T11:57:52.921Z,2.35
2024-01-20T11:58:52.888Z,2.34
2024-01-20T11:59:52.893Z,2.35
2024-01-20T12:00:53.798Z,2.36
2024-01-20T12:01:52.955Z,2.38
2024-01-20T12:02:52.919Z,2.42
2024-01-20T12:03:52.866Z,2.42
2024-01-20T12:04:57.500Z,2.42
2024-01-20T12:05:54.002Z,2.43
2024-01-20T12:06:52.974Z,2.41
2024-01-20T12:07:52.793Z,2.36
2024-01-20T12:08:52.885Z,2.34
2024-01-20T12:09:53.517Z,2.35
2024-01-20T12:10:53.684Z,2.38
2024-01-20T12:11:52.761Z,2.42
2024-01-20T12:12:52.764Z,2.46
2024-01-20T12:13:52.738Z,2.53
2024-01-20T12:14:52.734Z,2.54
2024-01-20T12:15:52.712Z,2.59
2024-01-20T12:16:52.691Z,2.59
2024-01-20T12:17:52.744Z,2.60
2024-01-20T12:18:52.833Z,2.59
2024-01-20T12:19:52.701Z,2.56
2024-01-20T12:20:52.751Z,2.56
2024-01-20T12:21:52.646Z,2.57
2024-01-20T12:22:52.641Z,2.54
2024-01-20T12:23:52.621Z,2.54
2024-01-20T12:24:52.624Z,2.56
2024-01-20T12:25:52.615Z,2.54
2024-01-20T12:26:52.591Z,2.60
2024-01-20T12:27:52.588Z,2.61
2024-01-20T12:28:52.708Z,2.63
2024-01-20T12:29:53.394Z,2.67
2024-01-20T12:30:52.577Z,2.69
2024-01-20T12:31:52.526Z,2.75
2024-01-20T12:32:52.683Z,2.79
2024-01-20T12:33:52.624Z,2.84
2024-01-20T12:34:52.574Z,2.84
2024-01-20T12:35:52.491Z,2.84
2024-01-20T12:36:52.477Z,2.85
2024-01-20T12:37:52.478Z,2.87
2024-01-20T12:38:52.454Z,2.89
2024-01-20T12:39:52.425Z,2.87
2024-01-20T12:40:52.496Z,2.89
2024-01-20T12:41:52.483Z,2.89
2024-01-20T12:42:52.397Z,2.81
2024-01-20T12:43:52.448Z,2.78
2024-01-20T12:44:52.772Z,2.74
2024-01-20T12:45:52.476Z,2.69
2024-01-20T12:46:52.460Z,2.72
2024-01-20T12:47:52.493Z,2.75
2024-01-20T12:48:52.481Z,2.81
2024-01-20T12:49:52.497Z,2.87
2024-01-20T12:50:52.947Z,2.87
2024-01-20T12:51:52.305Z,2.92
2024-01-20T12:52:52.445Z,2.92
2024-01-20T12:53:52.313Z,2.92
2024-01-20T12:54:52.537Z,2.93
2024-01-20T12:55:52.359Z,2.93